Time;durP1;ratioP1;P1;durP2;ratioP2;P2;SDS_P1;SDS_P2;PMS_P1;PMS_P2;Temp;Humidity;BMP_temperature;BMP_pressure;BME280_temperature;BME280_humidity;BME280_pressure;Samples;Min_cycle;Max_cycle;Signal;HPM_P1;HPM_P2
2022/08/12 00:44:09;;;;;;;5.18;2.75;;;19.90;99.90;;;;;;6275789;22;20027;-94
2022/08/12 00:46:50;;;;;;;4.75;2.60;;;19.90;99.90;;;;;;6250989;22;20090;-93
2022/08/12 00:49:17;;;;;;;4.38;2.25;;;19.90;99.90;;;;;;6250699;22;20378;-96
2022/08/12 00:54:29;;;;;;;3.90;2.13;;;19.90;99.90;;;;;;6276581;22;20027;-94
2022/08/12 00:57:00;;;;;;;3.97;2.17;;;19.80;99.90;;;;;;6251951;22;20019;-95
2022/08/12 00:59:26;;;;;;;4.88;2.35;;;19.80;99.90;;;;;;6251616;22;20460;-90
2022/08/12 01:02:08;;;;;;;4.60;2.53;;;19.70;99.90;;;;;;6250321;22;20020;-93
2022/08/12 01:13:15;;;;;;;3.60;2.08;;;19.70;99.90;;;;;;6277352;22;20045;-92
2022/08/12 01:15:44;;;;;;;5.57;2.70;;;19.70;99.90;;;;;;6252525;22;20022;-91
2022/08/12 01:18:52;;;;;;;;;;;;;;;;;;;;;
2022/08/12 01:22:13;;;;;;;5.43;2.17;;;19.70;99.90;;;;;;6278911;22;20031;-92
2022/08/12 01:24:46;;;;;;;5.00;2.80;;;19.60;99.90;;;;;;6251867;22;20016;-94
2022/08/12 01:27:16;;;;;;;5.03;2.72;;;19.60;99.90;;;;;;6252162;22;20040;-91
2022/08/12 01:29:47;;;;;;;5.70;2.58;;;19.50;99.90;;;;;;6251633;22;20130;-95
2022/08/12 01:32:18;;;;;;;4.97;2.55;;;19.50;99.90;;;;;;6252229;22;20460;-91
2022/08/12 01:35:29;;;;;;;4.68;2.53;;;19.50;99.90;;;;;;6251982;22;20012;-92
2022/08/12 01:38:03;;;;;;;4.50;2.47;;;19.50;99.90;;;;;;6219643;22;20020;-92
2022/08/12 01:40:36;;;;;;;5.30;2.72;;;19.60;99.90;;;;;;6251481;22;20027;-91
2022/08/12 01:43:29;;;;;;;5.60;2.60;;;19.60;99.90;;;;;;6251647;22;20444;-91
2022/08/12 01:46:21;;;;;;;4.18;2.25;;;19.60;99.90;;;;;;6245501;22;20016;-91
2022/08/12 01:49:43;;;;;;;5.50;2.45;;;19.50;99.90;;;;;;6252111;22;20027;-90
2022/08/12 01:52:26;;;;;;;5.95;2.42;;;19.50;99.90;;;;;;6251791;22;20115;-90
2022/08/12 01:54:53;;;;;;;5.65;2.10;;;19.50;99.90;;;;;;6251671;22;20392;-91
2022/08/12 01:57:23;;;;;;;;;;;19.50;99.90;;;;;;6252109;22;20067;-92
2022/08/12 02:00:44;;;;;;;;;;;;;;;;;;;;;
2022/08/12 02:13:14;;;;;;;4.72;2.55;;;19.50;99.90;;;;;;6276971;22;20024;-93
2022/08/12 02:16:00;;;;;;;;;;;19.50;99.90;;;;;;6231775;22;20437;-92
2022/08/12 02:18:59;;;;;;;6.22;2.40;;;19.40;99.90;;;;;;6175122;22;19922;-93
2022/08/12 02:21:53;;;;;;;4.70;2.50;;;19.40;99.90;;;;;;6251697;22;20019;-89
2022/08/12 02:24:20;;;;;;;4.93;2.58;;;19.40;99.90;;;;;;6251277;22;20023;-92
2022/08/12 02:26:48;;;;;;;5.05;2.60;;;19.40;99.90;;;;;;6251481;22;20310;-91
2022/08/12 02:29:14;;;;;;;4.97;2.67;;;19.40;99.90;;;;;;6250976;22;20467;-92
2022/08/12 02:31:42;;;;;;;;;;;19.40;99.90;;;;;;6251745;22;20020;-90
2022/08/12 02:34:08;;;;;;;5.20;2.85;;;19.40;99.90;;;;;;6251208;22;20386;-92
2022/08/12 02:36:38;;;;;;;5.60;2.55;;;19.40;99.90;;;;;;6251579;22;20046;-93
2022/08/12 02:39:04;;;;;;;6.53;2.55;;;19.40;99.90;;;;;;6250964;22;20318;-92
2022/08/12 02:41:33;;;;;;;6.43;2.70;;;19.40;99.90;;;;;;6251121;22;20407;-93
2022/08/12 02:44:03;;;;;;;5.63;2.58;;;19.40;99.90;;;;;;6250903;22;20011;-92
2022/08/12 02:46:31;;;;;;;5.53;2.90;;;19.40;99.90;;;;;;6250307;22;20515;-88
2022/08/12 02:48:59;;;;;;;5.45;2.38;;;19.40;99.90;;;;;;6250912;22;20467;-91
2022/08/12 02:51:29;;;;;;;5.10;2.50;;;19.40;99.90;;;;;;6251021;22;20015;-91
2022/08/12 02:53:58;;;;;;;4.47;2.65;;;19.40;99.90;;;;;;6250981;22;20016;-90
2022/08/12 02:56:27;;;;;;;5.18;2.83;;;19.40;99.90;;;;;;6251009;22;20713;-91
2022/08/12 02:58:53;;;;;;;5.30;2.60;;;19.40;99.90;;;;;;6250935;22;20023;-90
2022/08/12 03:01:23;;;;;;;5.30;2.80;;;19.40;99.90;;;;;;6276754;22;20065;-91
2022/08/12 03:03:51;;;;;;;6.75;2.80;;;19.40;99.90;;;;;;6250954;22;20073;-90
2022/08/12 03:06:21;;;;;;;5.13;2.72;;;19.40;99.90;;;;;;6251060;22;20074;-92
2022/08/12 03:08:48;;;;;;;5.63;2.67;;;19.30;99.90;;;;;;6251220;22;20102;-88
2022/08/12 03:11:34;;;;;;;6.10;2.75;;;19.30;99.90;;;;;;6250778;22;20015;-92
2022/08/12 03:14:01;;;;;;;5.30;3.00;;;19.30;99.90;;;;;;6251368;22;20045;-91
2022/08/12 03:16:31;;;;;;;5.32;3.00;;;19.30;99.90;;;;;;6251045;22;20019;-91
2022/08/12 03:18:57;;;;;;;5.47;2.72;;;19.30;99.90;;;;;;6250657;22;20077;-91
2022/08/12 03:21:24;;;;;;;6.28;2.83;;;19.30;99.90;;;;;;6250833;22;20571;-92
2022/08/12 03:23:53;;;;;;;5.50;2.92;;;19.20;99.90;;;;;;6250397;22;20051;-92
2022/08/12 03:26:25;;;;;;;6.13;3.00;;;19.20;99.90;;;;;;6250633;22;20012;-90
2022/08/12 03:28:57;;;;;;;5.40;2.80;;;19.20;99.90;;;;;;6250272;22;20081;-93
2022/08/12 03:31:35;;;;;;;6.47;2.65;;;19.10;99.90;;;;;;6250488;22;20019;-92
2022/08/12 03:34:09;;;;;;;4.75;2.50;;;19.10;99.90;;;;;;6250325;22;20016;-91
2022/08/12 03:36:37;;;;;;;4.32;2.40;;;19.10;99.90;;;;;;6250622;22;20016;-91
2022/08/12 03:42:08;;;;;;;5.03;2.90;;;19.00;99.90;;;;;;6275824;22;20020;-90
2022/08/12 04:01:13;;;;;;;5.15;2.65;;;18.70;99.90;;;;;;6275842;22;20104;-91
2022/08/12 04:04:00;;;;;;;5.05;2.47;;;18.70;99.90;;;;;;6250401;22;20398;-94
2022/08/12 04:06:32;;;;;;;5.68;2.80;;;18.70;99.90;;;;;;6250702;22;20547;-91
2022/08/12 04:09:04;;;;;;;4.50;2.13;;;18.70;99.90;;;;;;6250821;22;20027;-94
2022/08/12 04:14:22;;;;;;;4.72;2.50;;;18.60;99.90;;;;;;6275439;22;20024;-92
2022/08/12 04:16:50;;;;;;;4.53;2.35;;;18.60;99.90;;;;;;6250162;22;20051;-92
2022/08/12 04:19:23;;;;;;;4.97;2.38;;;18.60;99.90;;;;;;6249986;22;20319;-90
2022/08/12 04:21:55;;;;;;;4.88;2.40;;;18.60;99.90;;;;;;6249966;22;20094;-91
2022/08/12 04:24:24;;;;;;;4.57;2.53;;;18.50;99.90;;;;;;6250346;22;20110;-89
2022/08/12 04:26:50;;;;;;;5.25;2.95;;;18.50;99.90;;;;;;6249894;22;20024;-92
2022/08/12 04:29:18;;;;;;;;;;;18.50;99.90;;;;;;6250676;22;20043;-95
2022/08/12 04:31:44;;;;;;;6.40;3.08;;;18.50;99.90;;;;;;6250320;22;19915;-92
2022/08/12 04:34:12;;;;;;;5.05;2.88;;;18.40;99.90;;;;;;6250425;22;20018;-91
2022/08/12 04:36:40;;;;;;;5.50;2.80;;;18.40;99.90;;;;;;6249954;22;20023;-93
2022/08/12 04:39:07;;;;;;;5.65;2.70;;;18.40;99.90;;;;;;6250105;22;20023;-92
2022/08/12 04:41:36;;;;;;;4.40;2.40;;;18.30;99.90;;;;;;6250834;22;20023;-93
2022/08/12 04:44:03;;;;;;;5.45;2.72;;;18.30;99.90;;;;;;6252266;22;20050;-93
2022/08/12 04:46:37;;;;;;;6.22;3.15;;;18.30;99.90;;;;;;6251961;22;20337;-93
2022/08/12 04:49:04;;;;;;;5.82;2.63;;;18.20;99.90;;;;;;6251815;22;20027;-91
2022/08/12 04:51:31;;;;;;;6.93;2.90;;;18.20;99.90;;;;;;6252224;22;20345;-92
2022/08/12 04:54:13;;;;;;;5.78;2.95;;;18.20;99.90;;;;;;6251926;22;20141;-92
2022/08/12 04:56:39;;;;;;;5.65;2.70;;;18.20;99.90;;;;;;6251701;22;20528;-91
2022/08/12 04:59:06;;;;;;;5.15;2.58;;;18.20;99.90;;;;;;6240831;22;20012;-92
2022/08/12 05:04:21;;;;;;;5.72;2.72;;;18.20;99.90;;;;;;6278614;22;20044;-91
2022/08/12 05:06:47;;;;;;;5.18;2.80;;;18.20;99.90;;;;;;6252128;22;20016;-93
2022/08/12 05:09:14;;;;;;;4.35;2.35;;;18.20;99.90;;;;;;6251673;22;20337;-91
2022/08/12 05:11:40;;;;;;;5.13;2.78;;;18.20;99.90;;;;;;6277257;22;20022;-92
2022/08/12 05:14:07;;;;;;;5.82;2.50;;;18.20;99.90;;;;;;6251775;22;20019;-91
2022/08/12 05:16:34;;;;;;;5.07;2.40;;;18.30;99.90;;;;;;6251507;22;20094;-92
2022/08/12 05:19:07;;;;;;;4.45;2.40;;;18.30;99.90;;;;;;6251427;22;20012;-93
2022/08/12 05:22:35;;;;;;;5.77;2.43;;;18.30;99.90;;;;;;6252437;22;20016;-91
2022/08/12 05:30:37;;;;;;;5.40;2.60;;;18.50;99.90;;;;;;6278014;22;20046;-91
2022/08/12 05:33:04;;;;;;;5.85;2.58;;;18.50;99.90;;;;;;6251254;22;20452;-90
2022/08/12 05:35:35;;;;;;;4.70;2.42;;;18.60;99.90;;;;;;6251418;22;20043;-93
2022/08/12 05:40:47;;;;;;;6.32;2.65;;;18.60;99.90;;;;;;6276786;22;20022;-89
2022/08/12 05:43:13;;;;;;;4.32;2.38;;;18.60;99.90;;;;;;6251448;22;20019;-90
2022/08/12 05:45:39;;;;;;;5.18;2.50;;;18.60;99.90;;;;;;6251184;22;20015;-91
2022/08/12 05:48:05;;;;;;;5.78;2.50;;;18.70;99.90;;;;;;6251500;22;20022;-90
2022/08/12 05:50:31;;;;;;;4.88;2.20;;;18.80;99.90;;;;;;6251471;22;20020;-92
2022/08/12 05:52:57;;;;;;;;;;;18.80;99.90;;;;;;6251866;22;20017;-90
2022/08/12 05:55:23;;;;;;;6.63;3.17;;;18.90;99.90;;;;;;6251173;22;20241;-90
2022/08/12 05:57:54;;;;;;;4.38;2.22;;;19.00;99.90;;;;;;6251394;22;20015;-92
2022/08/12 06:00:24;;;;;;;4.10;2.03;;;19.10;99.90;;;;;;6251272;22;20042;-90
2022/08/12 06:02:55;;;;;;;4.80;2.53;;;19.30;99.90;;;;;;6251451;22;20437;-90
2022/08/12 06:05:21;;;;;;;6.55;2.45;;;19.70;99.90;;;;;;6251201;22;20125;-91
2022/08/12 06:08:04;;;;;;;4.90;2.45;;;20.00;99.90;;;;;;6251251;22;20012;-91
2022/08/12 06:10:31;;;;;;;5.90;2.45;;;20.50;99.90;;;;;;6251844;22;20016;-94
2022/08/12 06:13:03;;;;;;;4.55;2.17;;;20.90;99.90;;;;;;6251589;22;20078;-93
2022/08/12 06:15:30;;;;;;;4.72;2.20;;;21.30;99.90;;;;;;6251147;22;20026;-93
2022/08/12 06:18:32;;;;;;;5.70;2.20;;;22.20;99.90;;;;;;6251013;22;20090;-96
2022/08/12 06:21:22;;;;;;;3.60;1.80;;;23.30;99.90;;;;;;6276615;22;20053;-92
2022/08/12 06:23:50;;;;;;;4.05;2.00;;;24.40;99.90;;;;;;6251485;22;20011;-93
2022/08/12 06:26:19;;;;;;;3.45;1.60;;;24.50;99.90;;;;;;6250961;22;20024;-96
2022/08/12 06:28:49;;;;;;;3.15;1.45;;;24.40;99.90;;;;;;6251198;22;20345;-96
2022/08/12 06:31:19;;;;;;;4.10;1.90;;;24.40;99.90;;;;;;6250859;22;20339;-95
2022/08/12 06:33:46;;;;;;;3.35;1.67;;;24.40;99.90;;;;;;6250895;22;20039;-95
2022/08/12 06:36:15;;;;;;;3.67;1.40;;;25.00;99.90;;;;;;6251140;22;20429;-95
2022/08/12 06:38:42;;;;;;;2.72;1.45;;;25.80;99.90;;;;;;6250792;22;20012;-94
2022/08/12 06:43:53;;;;;;;3.85;1.92;;;27.10;99.10;;;;;;6276177;22;20027;-95
2022/08/12 06:46:20;;;;;;;3.88;1.55;;;27.00;97.80;;;;;;6250790;22;20019;-94
2022/08/12 06:48:48;;;;;;;4.07;1.77;;;26.60;97.80;;;;;;6250976;22;20020;-92
2022/08/12 06:51:18;;;;;;;5.90;1.83;;;26.20;98.50;;;;;;6250637;22;20012;-95
2022/08/12 06:53:44;;;;;;;3.95;2.00;;;26.50;98.30;;;;;;6250816;22;20019;-91
2022/08/12 06:56:10;;;;;;;4.80;2.05;;;26.80;97.60;;;;;;6250484;22;20058;-90
2022/08/12 06:58:38;;;;;;;4.75;1.83;;;27.10;96.70;;;;;;6250647;22;20080;-92
2022/08/12 07:01:06;;;;;;;4.13;1.70;;;27.40;96.10;;;;;;6250965;22;20345;-91
2022/08/12 07:03:32;;;;;;;3.83;1.63;;;27.20;95.50;;;;;;6250374;22;20023;-91
2022/08/12 07:06:00;;;;;;;3.95;1.77;;;26.80;95.30;;;;;;6250617;22;20106;-93
2022/08/12 07:08:28;;;;;;;4.18;1.63;;;26.50;95.50;;;;;;6250590;22;20522;-90
2022/08/12 07:10:59;;;;;;;3.90;1.80;;;26.50;95.20;;;;;;6250630;22;20015;-90
2022/08/12 07:13:27;;;;;;;3.38;1.60;;;26.50;95.20;;;;;;6250441;22;20069;-93
2022/08/12 07:15:55;;;;;;;3.47;1.65;;;26.60;95.20;;;;;;6250500;22;20014;-91
2022/08/12 07:18:28;;;;;;;2.65;1.42;;;27.10;94.40;;;;;;6250822;22;20445;-91
2022/08/12 07:20:53;;;;;;;2.83;1.10;;;27.60;93.30;;;;;;6250702;22;20094;-92
2022/08/12 07:23:19;;;;;;;3.35;1.42;;;27.80;92.70;;;;;;6250381;22;20109;-96
2022/08/12 07:25:45;;;;;;;2.38;1.10;;;27.70;92.70;;;;;;6275907;22;20025;-91
2022/08/12 07:28:24;;;;;;;3.05;1.38;;;27.80;91.90;;;;;;6250587;22;20368;-94
2022/08/12 07:30:54;;;;;;;2.65;1.23;;;27.60;91.50;;;;;;6250291;22;20518;-91
2022/08/12 07:33:37;;;;;;;1.70;1.00;;;27.00;91.90;;;;;;6250388;22;20020;-92
2022/08/12 07:36:06;;;;;;;3.28;1.40;;;26.50;92.20;;;;;;6250613;22;20019;-94
2022/08/12 07:38:47;;;;;;;2.45;1.10;;;26.00;92.60;;;;;;6250566;22;20012;-95
2022/08/12 07:41:16;;;;;;;2.13;1.08;;;25.60;92.90;;;;;;6250273;22;20023;-93
2022/08/12 07:43:45;;;;;;;3.58;1.30;;;25.40;93.40;;;;;;6250357;22;20015;-94
2022/08/12 07:46:15;;;;;;;4.15;1.52;;;25.10;93.40;;;;;;6250219;22;20016;-92
2022/08/12 07:48:43;;;;;;;2.08;1.10;;;24.90;93.50;;;;;;6250778;22;20015;-90
2022/08/12 07:51:10;;;;;;;1.95;1.00;;;24.70;93.60;;;;;;6250950;22;20012;-93
2022/08/12 07:53:37;;;;;;;1.98;1.00;;;24.60;93.80;;;;;;6276131;22;20066;-90
2022/08/12 07:56:05;;;;;;;2.45;1.33;;;24.40;94.00;;;;;;6251614;22;20019;-93
2022/08/12 07:58:31;;;;;;;2.22;1.00;;;24.40;93.80;;;;;;6250108;22;20023;-93
2022/08/12 08:01:14;;;;;;;3.83;1.05;;;24.40;93.80;;;;;;6250154;22;20463;-93
2022/08/12 08:06:30;;;;;;;1.80;0.82;;;24.30;93.80;;;;;;6275793;22;20027;-95
2022/08/12 08:08:58;;;;;;;3.20;1.30;;;24.30;93.90;;;;;;6250160;22;20016;-91
2022/08/12 08:14:09;;;;;;;3.60;1.00;;;24.30;93.90;;;;;;6275549;22;20058;-91
2022/08/12 08:16:40;;;;;;;3.70;1.20;;;24.30;93.80;;;;;;6251949;22;20445;-92
2022/08/12 08:19:06;;;;;;;1.90;1.02;;;24.40;93.90;;;;;;6252182;22;20019;-90
2022/08/12 08:21:34;;;;;;;2.90;1.05;;;24.40;94.00;;;;;;6252467;22;20337;-90
2022/08/12 08:24:15;;;;;;;2.92;1.30;;;24.40;94.00;;;;;;6252612;22;20448;-93
2022/08/12 08:26:48;;;;;;;3.67;1.13;;;24.40;94.00;;;;;;6253094;22;20022;-95
2022/08/12 08:29:15;;;;;;;3.33;1.20;;;24.50;93.80;;;;;;6253701;22;20011;-94
2022/08/12 08:31:45;;;;;;;1.75;1.00;;;24.50;93.50;;;;;;6252205;22;20457;-94
2022/08/12 08:34:44;;;;;;;2.38;1.30;;;24.50;93.50;;;;;;6278627;22;20019;-95
2022/08/12 08:37:14;;;;;;;2.95;1.20;;;24.60;93.40;;;;;;6251722;22;20015;-91
2022/08/12 08:39:43;;;;;;;2.53;1.10;;;24.60;93.30;;;;;;6251950;22;20016;-94
2022/08/12 08:44:48;;;;;;;2.15;1.00;;;24.70;93.10;;;;;;6279086;22;20522;-94
2022/08/12 08:47:44;;;;;;;3.13;1.23;;;24.70;93.20;;;;;;6251813;22;20051;-94
2022/08/12 08:58:08;;;;;;;4.90;1.30;;;24.90;91.80;;;;;;6231546;22;20044;-93
2022/08/12 09:01:20;;;;;;;3.05;1.10;;;24.90;91.70;;;;;;6247333;23;20026;-94
2022/08/12 09:03:48;;;;;;;2.40;1.20;;;25.00;91.60;;;;;;6161443;23;20031;-94
2022/08/12 09:06:19;;;;;;;2.35;1.30;;;25.10;91.50;;;;;;6160661;23;20013;-93
2022/08/12 09:22:30;;;;;;;2.65;1.35;;;25.30;90.60;;;;;;6247909;22;20075;-94
2022/08/12 09:24:59;;;;;;;2.85;1.40;;;25.40;90.80;;;;;;6221256;23;20020;-92
2022/08/12 09:27:35;;;;;;;1.90;1.10;;;25.50;90.60;;;;;;6219902;23;20430;-92
2022/08/12 09:32:38;;;;;;;2.92;1.35;;;25.60;90.50;;;;;;6278415;22;20027;-94
2022/08/12 09:35:05;;;;;;;3.05;1.25;;;25.60;90.30;;;;;;6253108;22;20023;-92
2022/08/12 09:45:35;;;;;;;2.63;1.10;;;25.90;87.40;;;;;;6200394;23;20020;-93
2022/08/12 09:48:07;;;;;;;3.60;1.42;;;26.00;87.10;;;;;;6220945;23;20020;-91
2022/08/12 09:50:34;;;;;;;2.45;1.20;;;26.00;86.40;;;;;;6220956;23;20016;-91
2022/08/12 09:53:15;;;;;;;3.60;1.25;;;26.00;86.00;;;;;;6221063;23;20040;-91
2022/08/12 09:55:50;;;;;;;2.83;1.15;;;26.10;85.00;;;;;;6221187;23;20012;-91
2022/08/12 09:58:16;;;;;;;2.47;1.13;;;26.10;85.20;;;;;;6221146;23;20016;-90
2022/08/12 10:00:46;;;;;;;3.28;1.35;;;26.10;84.80;;;;;;6220849;23;20065;-90
2022/08/12 10:03:14;;;;;;;5.80;1.55;;;26.20;85.00;;;;;;6220949;23;20016;-91
2022/08/12 10:05:45;;;;;;;2.08;1.10;;;26.30;85.20;;;;;;6221168;23;20066;-93
2022/08/12 10:08:16;;;;;;;2.58;1.00;;;26.40;84.70;;;;;;6222020;23;20016;-90
2022/08/12 10:13:40;;;;;;;1.77;1.02;;;26.50;84.10;;;;;;6247216;23;20476;-92
2022/08/12 10:16:42;;;;;;;2.28;1.02;;;26.60;84.10;;;;;;6222550;23;20047;-95
2022/08/12 10:19:08;;;;;;;2.75;1.70;;;26.70;83.20;;;;;;6201302;23;20030;-90
2022/08/12 10:21:36;;;;;;;2.88;1.00;;;26.70;82.80;;;;;;6222123;23;20364;-92
2022/08/12 10:24:07;;;;;;;2.13;1.20;;;26.80;82.30;;;;;;6221139;23;20022;-91
2022/08/12 10:29:45;;;;;;;2.00;1.20;;;26.90;81.50;;;;;;6245746;23;20095;-95
2022/08/12 10:32:19;;;;;;;2.05;1.20;;;26.90;80.60;;;;;;6222325;23;20091;-91
2022/08/12 10:34:47;;;;;;;1.63;1.00;;;27.00;79.80;;;;;;6221555;23;20020;-95
2022/08/12 10:37:14;;;;;;;2.47;1.20;;;27.10;77.20;;;;;;6222330;23;20012;-91
2022/08/12 10:39:40;;;;;;;2.10;1.15;;;27.20;76.70;;;;;;6220679;23;20020;-90
2022/08/12 10:45:08;;;;;;;1.90;1.00;;;27.40;75.10;;;;;;6247701;23;20020;-96
2022/08/12 10:47:36;;;;;;;4.33;1.20;;;27.50;74.10;;;;;;6220272;23;20175;-89
2022/08/12 10:50:04;;;;;;;1.80;1.02;;;27.60;74.30;;;;;;6218329;23;20278;-93
2022/08/12 10:52:30;;;;;;;2.30;1.10;;;27.70;74.20;;;;;;6219508;23;20027;-91
2022/08/12 10:54:57;;;;;;;2.47;1.40;;;27.80;73.40;;;;;;6219816;23;20016;-93
2022/08/12 10:57:25;;;;;;;2.38;0.98;;;27.90;72.20;;;;;;6218917;23;20104;-91
2022/08/12 11:00:05;;;;;;;;;;;;;;;;;;;;;
2022/08/12 11:36:48;;;;;;;1.40;0.95;;;29.40;67.40;;;;;;6255546;22;20024;-94
2022/08/12 11:47:06;;;;;;;2.17;1.10;;;29.70;64.40;;;;;;6251532;22;20125;-95
2022/08/12 11:50:19;;;;;;;2.78;1.30;;;29.80;63.20;;;;;;6219565;23;20074;-93
2022/08/12 12:16:45;;;;;;;3.47;0.75;;;30.20;58.80;;;;;;6276675;22;20024;-92
2022/08/12 12:19:11;;;;;;;1.42;0.70;;;30.30;59.60;;;;;;6251359;22;20016;-94
2022/08/12 12:21:56;;;;;;;1.73;0.82;;;30.40;59.40;;;;;;6277584;22;20535;-96
2022/08/12 12:24:23;;;;;;;1.92;1.00;;;30.50;58.90;;;;;;6251355;22;20396;-94
2022/08/12 12:26:52;;;;;;;1.63;0.70;;;30.50;58.60;;;;;;6253229;22;20019;-91
2022/08/12 12:29:18;;;;;;;1.75;0.90;;;30.60;57.70;;;;;;6250501;22;20026;-90
2022/08/12 12:31:45;;;;;;;1.80;0.95;;;30.70;58.00;;;;;;6254546;22;20016;-91
2022/08/12 12:39:25;;;;;;;1.58;0.82;;;30.80;57.10;;;;;;6283761;22;20023;-90
2022/08/12 13:02:54;;;;;;;1.83;0.95;;;30.90;55.30;;;;;;6284018;22;20026;-88
2022/08/12 13:05:24;;;;;;;2.10;0.73;;;30.90;54.90;;;;;;6254145;22;20030;-91
2022/08/12 13:07:49;;;;;;;1.27;0.63;;;30.90;55.40;;;;;;6251941;22;20098;-93
2022/08/12 13:10:15;;;;;;;1.50;0.82;;;30.90;55.90;;;;;;6251481;22;20023;-93
2022/08/12 13:12:41;;;;;;;1.73;0.80;;;31.00;55.90;;;;;;6252180;22;20068;-91
2022/08/12 13:15:32;;;;;;;1.45;0.90;;;31.00;55.70;;;;;;6277667;22;20016;-94
2022/08/12 13:18:04;;;;;;;2.10;0.82;;;31.00;55.40;;;;;;6256665;22;20076;-91
2022/08/12 13:20:47;;;;;;;1.63;0.82;;;31.00;55.90;;;;;;6254738;22;20019;-95
2022/08/12 13:23:18;;;;;;;1.98;0.82;;;31.00;55.40;;;;;;6254620;22;20016;-95
2022/08/12 13:44:02;;;;;;;1.98;0.80;;;31.00;55.60;;;;;;6278185;22;20020;-90
2022/08/12 14:20:12;;;;;;;3.10;0.90;;;30.90;56.50;;;;;;6246853;22;20886;-93
2022/08/12 14:28:17;;;;;;;1.48;1.00;;;30.70;56.70;;;;;;6278586;22;20023;-90
2022/08/12 14:30:59;;;;;;;3.60;1.23;;;30.60;57.00;;;;;;6250765;22;20020;-90
2022/08/12 14:33:32;;;;;;;2.28;0.90;;;30.60;58.10;;;;;;6250685;22;20232;-92
2022/08/12 14:35:59;;;;;;;2.35;0.90;;;30.50;57.60;;;;;;6249495;22;20018;-89
2022/08/12 14:38:29;;;;;;;2.10;1.00;;;30.50;58.40;;;;;;6250030;22;20012;-91
2022/08/12 14:40:58;;;;;;;2.08;1.05;;;30.50;58.60;;;;;;6250290;22;20023;-90
2022/08/12 14:43:53;;;;;;;2.10;1.00;;;30.50;58.30;;;;;;6251156;22;20023;-88
2022/08/12 14:54:21;;;;;;;1.92;1.10;;;30.20;59.80;;;;;;6259963;22;20031;-90
2022/08/12 14:57:05;;;;;;;1.63;1.02;;;30.10;60.20;;;;;;6219591;23;20050;-91
2022/08/12 15:15:04;;;;;;;2.55;1.05;;;29.60;61.40;;;;;;6277616;22;20408;-89
2022/08/12 15:17:35;;;;;;;2.05;1.00;;;29.60;61.80;;;;;;6250942;22;20099;-91
2022/08/12 15:20:01;;;;;;;1.55;0.90;;;29.50;61.70;;;;;;6250386;22;20643;-92
2022/08/12 15:22:27;;;;;;;3.72;1.30;;;29.50;61.80;;;;;;6250679;22;20051;-90
2022/08/12 15:24:53;;;;;;;2.10;1.00;;;29.50;62.00;;;;;;6275785;22;20034;-92
2022/08/12 15:27:21;;;;;;;2.38;0.98;;;29.50;62.20;;;;;;6276325;22;20012;-94
2022/08/12 15:29:47;;;;;;;2.63;1.15;;;29.40;62.00;;;;;;6250139;22;20016;-89
2022/08/12 15:32:12;;;;;;;2.28;1.00;;;29.40;62.40;;;;;;6249860;22;20014;-89
2022/08/12 15:34:38;;;;;;;2.30;1.02;;;29.40;62.70;;;;;;6251032;22;20098;-90
2022/08/12 15:37:09;;;;;;;2.50;1.10;;;29.30;62.80;;;;;;6250054;22;20019;-89
2022/08/12 15:39:35;;;;;;;1.58;0.90;;;29.30;62.90;;;;;;6249715;22;20019;-91
2022/08/12 15:42:01;;;;;;;2.75;1.00;;;29.30;63.20;;;;;;6250601;22;20081;-92
2022/08/12 16:05:27;;;;;;;2.50;1.00;;;29.10;65.50;;;;;;6244176;22;20024;-90
2022/08/12 16:08:09;;;;;;;1.73;0.93;;;29.10;65.90;;;;;;6245861;23;20031;-89
2022/08/12 16:10:35;;;;;;;2.35;1.00;;;29.00;65.80;;;;;;6218974;23;20321;-96
2022/08/12 16:13:11;;;;;;;1.85;0.93;;;29.00;66.90;;;;;;6244970;23;20059;-89
2022/08/12 16:15:39;;;;;;;2.85;1.48;;;29.00;66.70;;;;;;6219766;23;20020;-95
2022/08/12 16:18:06;;;;;;;2.58;1.20;;;29.00;67.10;;;;;;6219463;23;20016;-88
2022/08/12 16:20:32;;;;;;;3.35;1.33;;;28.90;67.40;;;;;;6219472;23;20142;-92
2022/08/12 16:23:05;;;;;;;2.88;1.25;;;28.90;67.40;;;;;;6220246;23;20147;-92
2022/08/12 16:25:31;;;;;;;2.40;1.05;;;28.90;67.90;;;;;;6219802;23;20019;-89
2022/08/12 16:30:29;;;;;;;3.13;1.10;;;28.80;68.20;;;;;;6242938;22;20028;-90
2022/08/12 16:33:07;;;;;;;2.03;1.30;;;28.70;68.50;;;;;;6219806;23;20078;-89
2022/08/12 16:35:33;;;;;;;2.88;1.40;;;28.70;68.60;;;;;;6219981;23;20024;-91
2022/08/12 16:55:33;;;;;;;1.85;1.10;;;28.50;70.20;;;;;;6281439;22;20098;-94
2022/08/12 16:58:00;;;;;;;2.00;1.13;;;28.40;70.40;;;;;;6250310;22;20110;-92
2022/08/12 17:03:11;;;;;;;4.38;1.25;;;28.30;71.10;;;;;;6240917;22;20043;-95
2022/08/12 17:05:38;;;;;;;3.20;1.30;;;28.30;70.80;;;;;;6220010;23;20024;-95
2022/08/12 17:08:09;;;;;;;3.42;0.90;;;28.30;71.00;;;;;;6220728;23;20058;-94
2022/08/12 17:10:36;;;;;;;3.17;1.23;;;28.30;71.10;;;;;;6221529;23;20450;-95
2022/08/12 17:23:27;;;;;;;2.77;0.90;;;28.10;72.30;;;;;;6244872;22;20023;-92
2022/08/12 17:25:53;;;;;;;2.38;1.00;;;28.00;73.30;;;;;;6221893;23;20302;-94
2022/08/12 17:36:10;;;;;;;2.80;1.10;;;27.80;73.20;;;;;;6279058;22;20019;-95
2022/08/12 17:38:36;;;;;;;2.33;1.13;;;27.70;73.40;;;;;;6252452;22;20023;-94
2022/08/12 17:41:02;;;;;;;2.67;0.80;;;27.60;73.50;;;;;;6253008;22;20098;-94
2022/08/12 17:43:27;;;;;;;1.70;0.90;;;27.60;73.70;;;;;;6253122;22;20026;-95
2022/08/12 17:45:54;;;;;;;2.58;1.00;;;27.50;73.80;;;;;;6252950;22;20023;-94
2022/08/12 17:48:21;;;;;;;1.65;0.90;;;27.50;73.90;;;;;;6253716;22;20043;-95
2022/08/12 17:50:49;;;;;;;3.30;0.98;;;27.50;74.10;;;;;;6252920;22;20008;-94
2022/08/12 18:49:56;;;;;;;2.30;1.10;;;25.90;76.40;;;;;;6277249;22;20024;-93
2022/08/12 18:52:25;;;;;;;1.98;1.00;;;25.80;76.40;;;;;;6253582;22;20016;-95
2022/08/12 18:54:51;;;;;;;3.05;1.30;;;25.70;76.50;;;;;;6251452;22;20011;-95
2022/08/12 19:10:16;;;;;;;2.07;1.00;;;25.20;77.20;;;;;;6240674;22;20453;-96
2022/08/12 19:23:14;;;;;;;1.95;0.90;;;25.10;77.40;;;;;;6277175;22;20027;-89
2022/08/12 19:25:41;;;;;;;1.42;0.95;;;25.00;77.50;;;;;;6250045;22;20023;-90
2022/08/12 19:28:07;;;;;;;2.10;1.02;;;25.00;77.40;;;;;;6248897;22;20012;-90
2022/08/12 19:33:22;;;;;;;2.85;1.00;;;25.00;77.30;;;;;;6274232;22;20445;-89
2022/08/12 19:35:49;;;;;;;1.85;1.00;;;25.00;77.30;;;;;;6276172;22;20016;-92
2022/08/12 19:38:16;;;;;;;2.15;0.90;;;24.90;77.30;;;;;;6250589;22;20020;-91
2022/08/12 19:40:46;;;;;;;1.10;0.70;;;24.90;77.20;;;;;;6250331;22;20461;-92
2022/08/12 19:43:21;;;;;;;2.85;0.98;;;24.80;77.20;;;;;;6250700;22;20022;-91
2022/08/12 19:45:50;;;;;;;3.05;1.00;;;24.80;77.20;;;;;;6250632;22;20472;-92
2022/08/12 19:48:18;;;;;;;4.50;0.85;;;24.70;77.20;;;;;;6250532;22;20022;-89
2022/08/12 19:50:46;;;;;;;2.55;1.10;;;24.60;77.10;;;;;;6250528;22;20015;-92
2022/08/12 19:53:12;;;;;;;2.05;1.00;;;24.60;77.10;;;;;;6250588;22;20011;-89
2022/08/12 19:55:39;;;;;;;2.22;1.00;;;24.60;77.10;;;;;;6250401;22;20095;-91
2022/08/12 19:58:09;;;;;;;1.85;0.80;;;24.50;77.30;;;;;;6250650;22;20012;-91
2022/08/12 20:00:39;;;;;;;2.42;0.90;;;24.50;77.00;;;;;;6249975;22;20016;-88
2022/08/12 20:06:03;;;;;;;2.30;1.10;;;24.50;77.00;;;;;;6237822;22;20161;-94
2022/08/12 20:08:28;;;;;;;;;;;24.50;77.30;;;;;;6220567;23;20020;-93
2022/08/12 20:16:40;;;;;;;2.50;1.00;;;24.40;77.00;;;;;;6279406;22;20350;-94
2022/08/12 20:30:36;;;;;;;2.10;0.90;;;24.30;77.20;;;;;;6277115;22;20023;-95
